Terminal Aerodrome Forecast
Issued by NWS

Home | Current Version | Previous Version | Text Only | Print | Product List | Glossary On
Versions: 1 2 3 4 5 6 7 8 9 10 11 12
000
FTUS41 KLWX 281740
TAFMTN
TAF
KMTN 281740Z 2818/2918 15009KT P6SM SCT050
     FM290200 17005KT P6SM SCT250
     FM291000 VRB03KT 4SM BR SCT150
     FM291400 15005KT P6SM BKN090=

USA.gov is the U.S. government's official web portal to all federal, state and local government web resources and services.